createdAt,value
2023-12-15T00:00:06.401Z,3.60
2023-12-15T00:02:36.080Z,3.10
2023-12-15T00:05:05.649Z,2.50
2023-12-15T00:07:34.435Z,4.20
2023-12-15T00:10:03.389Z,2.80
2023-12-15T00:12:32.074Z,3.70
2023-12-15T00:15:00.657Z,3.90
2023-12-15T00:17:29.036Z,3.80
2023-12-15T00:19:57.581Z,4.20
2023-12-15T00:22:25.915Z,3.90
2023-12-15T00:24:54.954Z,4.50
2023-12-15T00:27:23.289Z,2.80
2023-12-15T00:29:51.704Z,3.40
2023-12-15T00:32:20.296Z,1.70
2023-12-15T00:34:49.064Z,1.80
2023-12-15T00:37:17.662Z,3.70
2023-12-15T00:39:45.933Z,3.10
2023-12-15T00:42:14.250Z,2.40
2023-12-15T00:44:42.917Z,2.90
2023-12-15T00:47:11.500Z,3.40
2023-12-15T00:49:39.774Z,1.70
2023-12-15T00:52:08.331Z,0.80
2023-12-15T00:54:36.929Z,3.40
2023-12-15T00:57:05.688Z,2.30
2023-12-15T00:59:34.437Z,2.90
2023-12-15T01:02:05.609Z,3.10
2023-12-15T01:04:34.451Z,3.40
2023-12-15T01:07:03.106Z,3.20
2023-12-15T01:09:31.524Z,2.00
2023-12-15T01:12:00.415Z,2.70
2023-12-15T01:14:29.144Z,2.60
2023-12-15T01:16:57.597Z,1.90
2023-12-15T01:19:28.777Z,2.00
2023-12-15T01:21:57.975Z,2.40
2023-12-15T01:24:26.312Z,1.80
2023-12-15T01:26:54.903Z,1.40
2023-12-15T01:29:23.376Z,1.90
2023-12-15T01:31:51.768Z,3.60
2023-12-15T01:34:20.719Z,1.90
2023-12-15T01:36:49.618Z,3.60
2023-12-15T01:39:18.307Z,4.10
2023-12-15T01:41:46.790Z,4.80
2023-12-15T01:44:15.200Z,4.30
2023-12-15T01:46:44.172Z,5.40
2023-12-15T01:49:12.590Z,6.20
2023-12-15T01:51:41.417Z,6.40
2023-12-15T01:54:09.794Z,4.60
2023-12-15T01:56:38.693Z,4.30
2023-12-15T01:59:07.061Z,3.10
2023-12-15T02:01:35.455Z,7.50
2023-12-15T02:04:03.956Z,3.80
2023-12-15T02:06:32.296Z,3.40
2023-12-15T02:09:01.209Z,8.40
2023-12-15T02:11:30.024Z,3.50
2023-12-15T02:13:58.482Z,2.70
2023-12-15T02:16:26.861Z,4.40
2023-12-15T02:18:55.307Z,7.50
2023-12-15T02:21:24.159Z,2.90
2023-12-15T02:23:52.398Z,4.80
2023-12-15T02:26:20.911Z,4.60
2023-12-15T02:28:49.439Z,3.80
2023-12-15T02:31:19.266Z,3.30
2023-12-15T02:33:48.072Z,5.30
2023-12-15T02:36:20.305Z,3.90
2023-12-15T02:38:48.930Z,5.60
2023-12-15T02:41:17.646Z,3.30
2023-12-15T02:43:46.032Z,3.20
2023-12-15T02:46:14.472Z,3.20
2023-12-15T02:48:42.855Z,6.60
2023-12-15T02:51:11.598Z,6.40
2023-12-15T02:53:40.841Z,2.90
2023-12-15T02:56:10.769Z,3.00
2023-12-15T02:58:40.106Z,4.60
2023-12-15T03:01:08.475Z,4.20
2023-12-15T03:03:37.332Z,3.60
2023-12-15T03:06:06.890Z,2.90
2023-12-15T03:08:35.330Z,3.40
2023-12-15T03:11:03.994Z,4.50
2023-12-15T03:13:32.652Z,3.70
2023-12-15T03:16:06.569Z,5.00
2023-12-15T03:18:34.983Z,1.90
2023-12-15T03:21:03.571Z,4.20
2023-12-15T03:23:32.473Z,4.80
2023-12-15T03:26:01.031Z,4.00
2023-12-15T03:28:31.926Z,4.40
2023-12-15T03:31:02.913Z,3.10
2023-12-15T03:33:37.231Z,6.40
2023-12-15T03:36:08.277Z,3.90
2023-12-15T03:38:36.763Z,7.70
2023-12-15T03:41:07.153Z,3.90
2023-12-15T03:43:36.139Z,5.90
2023-12-15T03:46:05.729Z,3.80
2023-12-15T03:48:34.203Z,4.60
2023-12-15T03:51:03.060Z,5.70
2023-12-15T03:53:31.946Z,7.60
2023-12-15T03:56:00.403Z,2.10
2023-12-15T03:58:28.750Z,4.50
2023-12-15T04:00:57.149Z,4.40
2023-12-15T04:03:25.601Z,3.50
2023-12-15T04:05:54.008Z,7.90
2023-12-15T04:08:22.514Z,3.50
2023-12-15T04:10:50.907Z,2.10
2023-12-15T04:13:19.278Z,6.10
2023-12-15T04:15:49.876Z,2.50
2023-12-15T04:18:18.314Z,5.90
2023-12-15T04:20:46.772Z,6.70
2023-12-15T04:23:16.896Z,5.50
2023-12-15T04:25:45.594Z,3.90
2023-12-15T04:28:14.050Z,4.70
2023-12-15T04:30:42.317Z,6.80
2023-12-15T04:33:11.041Z,3.70
2023-12-15T04:35:39.433Z,5.40
2023-12-15T04:38:07.975Z,7.30
2023-12-15T04:40:36.335Z,2.40
2023-12-15T04:43:04.723Z,7.50
2023-12-15T04:45:34.525Z,6.60
2023-12-15T04:48:03.401Z,5.80
2023-12-15T04:50:32.944Z,1.90
2023-12-15T04:53:02.692Z,1.20
2023-12-15T04:55:31.045Z,6.20
2023-12-15T04:57:59.762Z,3.50
2023-12-15T05:00:28.307Z,4.70
2023-12-15T05:02:56.892Z,3.00
2023-12-15T05:05:25.373Z,2.00
2023-12-15T05:07:54.268Z,5.70
2023-12-15T05:10:22.790Z,3.10
2023-12-15T05:12:51.373Z,2.90
2023-12-15T05:15:20.937Z,6.00
2023-12-15T05:17:50.430Z,3.00
2023-12-15T05:20:20.622Z,4.00
2023-12-15T05:22:49.201Z,4.20
2023-12-15T05:25:17.648Z,3.40
2023-12-15T05:27:45.961Z,6.40
2023-12-15T05:30:15.383Z,3.20
2023-12-15T05:32:44.433Z,4.20
2023-12-15T05:35:12.922Z,1.70
2023-12-15T05:37:41.444Z,5.10
2023-12-15T05:40:13.047Z,4.50
2023-12-15T05:42:41.338Z,4.50
2023-12-15T05:45:11.597Z,3.70
2023-12-15T05:47:41.366Z,6.70
2023-12-15T05:50:13.522Z,3.50
2023-12-15T05:52:41.949Z,4.50
2023-12-15T05:55:10.529Z,4.30
2023-12-15T05:57:39.662Z,6.30
2023-12-15T06:00:10.737Z,5.50
2023-12-15T06:02:39.380Z,4.80
2023-12-15T06:05:08.711Z,4.80
2023-12-15T06:07:37.398Z,5.10
2023-12-15T06:10:08.134Z,4.80
2023-12-15T06:12:36.425Z,4.00
2023-12-15T06:15:12.443Z,2.70
2023-12-15T06:17:43.176Z,5.70
2023-12-15T06:20:14.495Z,5.20
2023-12-15T06:22:43.191Z,5.80
2023-12-15T06:25:14.564Z,6.00
2023-12-15T06:27:42.923Z,5.00
2023-12-15T06:30:14.096Z,2.00
2023-12-15T06:32:42.581Z,4.90
2023-12-15T06:35:11.068Z,5.20
2023-12-15T06:37:39.685Z,6.20
2023-12-15T06:40:10.096Z,3.90
2023-12-15T06:42:38.839Z,5.60
2023-12-15T06:45:09.898Z,4.30
2023-12-15T06:47:39.287Z,4.40
2023-12-15T06:50:10.158Z,5.60
2023-12-15T06:52:39.254Z,3.80
2023-12-15T06:55:08.706Z,4.30
2023-12-15T06:57:37.607Z,6.50
2023-12-15T07:00:08.712Z,4.00
2023-12-15T07:02:37.423Z,6.80
2023-12-15T07:05:08.168Z,6.40
2023-12-15T07:07:37.443Z,5.40
2023-12-15T07:10:08.303Z,5.70
2023-12-15T07:12:36.711Z,4.20
2023-12-15T07:15:06.972Z,6.60
2023-12-15T07:17:35.690Z,5.10
2023-12-15T07:20:06.284Z,3.50
2023-12-15T07:22:34.657Z,3.90
2023-12-15T07:25:03.238Z,2.80
2023-12-15T07:27:31.507Z,3.30
2023-12-15T07:29:59.921Z,2.30
2023-12-15T07:32:28.524Z,6.30
2023-12-15T07:34:58.321Z,5.50
2023-12-15T07:37:26.612Z,4.30
2023-12-15T07:39:56.414Z,6.40
2023-12-15T07:42:24.772Z,6.20
2023-12-15T07:44:53.208Z,3.80
2023-12-15T07:47:21.471Z,4.30
2023-12-15T07:49:49.864Z,3.50
2023-12-15T07:52:18.146Z,5.10
2023-12-15T07:54:46.946Z,3.60
2023-12-15T07:57:16.271Z,4.80
2023-12-15T07:59:44.787Z,6.00
2023-12-15T08:02:13.111Z,6.20
2023-12-15T08:04:42.046Z,6.70
2023-12-15T08:07:11.479Z,6.30
2023-12-15T08:09:40.146Z,5.40
2023-12-15T08:12:10.056Z,8.60
2023-12-15T08:14:38.495Z,5.20
2023-12-15T08:17:06.998Z,3.10
2023-12-15T08:19:35.579Z,2.40
2023-12-15T08:22:04.302Z,4.90
2023-12-15T08:24:32.966Z,10.70
2023-12-15T08:27:01.840Z,7.10
2023-12-15T08:29:30.273Z,10.50
2023-12-15T08:31:58.849Z,13.20
2023-12-15T08:34:28.552Z,8.30
2023-12-15T08:36:57.146Z,10.20
2023-12-15T08:39:25.526Z,5.70
2023-12-15T08:41:53.955Z,9.20
2023-12-15T08:44:29.266Z,9.20
2023-12-15T08:47:02.760Z,8.20
2023-12-15T08:49:31.375Z,4.90
2023-12-15T08:51:59.760Z,10.80
2023-12-15T08:54:28.801Z,10.60
2023-12-15T08:56:57.323Z,6.20
2023-12-15T08:59:25.810Z,6.70
2023-12-15T09:01:54.599Z,7.80
2023-12-15T09:04:23.491Z,4.70
2023-12-15T09:06:53.067Z,3.80
2023-12-15T09:09:22.460Z,8.30
2023-12-15T09:11:50.820Z,6.80
2023-12-15T09:14:22.039Z,5.20
2023-12-15T09:16:50.496Z,8.50
2023-12-15T09:19:19.145Z,7.30
2023-12-15T09:21:48.041Z,4.40
2023-12-15T09:24:18.468Z,12.30
2023-12-15T09:26:47.167Z,5.20
2023-12-15T09:29:16.289Z,13.50
2023-12-15T09:31:44.843Z,9.10
2023-12-15T09:34:14.289Z,7.50
2023-12-15T09:36:43.532Z,8.30
2023-12-15T09:39:12.971Z,5.90
2023-12-15T09:41:41.392Z,2.70
2023-12-15T09:44:09.733Z,9.40
2023-12-15T09:46:38.655Z,8.30
2023-12-15T09:49:07.132Z,5.80
2023-12-15T09:51:38.214Z,8.40
2023-12-15T09:54:06.932Z,10.20
2023-12-15T09:56:35.204Z,14.70
2023-12-15T09:59:04.266Z,7.30
2023-12-15T10:01:34.224Z,7.10
2023-12-15T10:04:03.108Z,6.40
2023-12-15T10:06:34.944Z,5.50
2023-12-15T10:09:03.997Z,5.80
2023-12-15T10:11:35.109Z,10.90
2023-12-15T10:14:05.261Z,6.10
2023-12-15T10:16:33.802Z,7.50
2023-12-15T10:19:04.653Z,9.50
2023-12-15T10:21:33.877Z,6.20
2023-12-15T10:24:19.054Z,5.00
2023-12-15T10:26:47.541Z,13.70
2023-12-15T10:29:16.027Z,7.90
2023-12-15T10:31:44.424Z,7.70
2023-12-15T10:34:12.775Z,6.80
2023-12-15T10:36:45.420Z,4.90
2023-12-15T10:39:14.338Z,14.20
2023-12-15T10:41:43.364Z,12.60
2023-12-15T10:44:13.033Z,14.40
2023-12-15T10:46:43.048Z,11.70
2023-12-15T10:49:13.861Z,10.20
2023-12-15T10:51:44.187Z,8.60
2023-12-15T10:54:12.458Z,15.70
2023-12-15T10:56:40.804Z,10.50
2023-12-15T10:59:10.067Z,14.80
2023-12-15T11:01:40.910Z,12.00
2023-12-15T11:04:20.195Z,15.90
2023-12-15T11:06:49.384Z,11.40
2023-12-15T11:09:36.192Z,11.00
2023-12-15T11:12:29.675Z,4.60
2023-12-15T11:15:03.801Z,5.20
2023-12-15T11:20:06.810Z,15.20
2023-12-15T11:22:54.425Z,6.50
2023-12-15T11:25:31.183Z,4.40
2023-12-15T11:28:00.471Z,12.90
2023-12-15T11:30:36.878Z,10.50
2023-12-15T11:33:40.519Z,10.30
2023-12-15T11:36:10.134Z,5.70
2023-12-15T11:38:39.888Z,10.10
2023-12-15T11:41:11.341Z,6.90
2023-12-15T11:43:44.032Z,10.10
2023-12-15T11:46:12.621Z,10.70
2023-12-15T11:48:42.242Z,8.50
2023-12-15T11:51:11.041Z,10.10
2023-12-15T11:53:42.156Z,10.90
2023-12-15T11:56:12.012Z,12.40
2023-12-15T11:58:40.797Z,8.90
2023-12-15T12:01:09.417Z,8.30
2023-12-15T12:03:37.872Z,8.30
2023-12-15T12:06:09.235Z,11.80
2023-12-15T12:08:37.907Z,11.40
2023-12-15T12:11:09.310Z,19.60
2023-12-15T12:13:40.166Z,7.80
2023-12-15T12:16:08.859Z,19.20
2023-12-15T12:18:37.552Z,11.80
2023-12-15T12:21:08.314Z,9.90
2023-12-15T12:23:43.352Z,7.30
2023-12-15T12:26:15.668Z,7.80
2023-12-15T12:28:48.948Z,8.00
2023-12-15T12:31:17.318Z,13.10
2023-12-15T12:33:46.160Z,15.80
2023-12-15T12:36:15.521Z,10.20
2023-12-15T12:38:43.932Z,8.40
2023-12-15T12:41:13.101Z,8.00
2023-12-15T12:43:42.170Z,8.00
2023-12-15T12:46:12.143Z,16.20
2023-12-15T12:48:41.203Z,10.30
2023-12-15T12:51:09.835Z,7.00
2023-12-15T12:53:38.244Z,11.60
2023-12-15T12:56:08.217Z,14.00
2023-12-15T12:58:36.825Z,16.80
2023-12-15T13:01:05.859Z,13.40
2023-12-15T13:03:34.385Z,16.00
2023-12-15T13:06:03.057Z,9.30
2023-12-15T13:08:31.844Z,10.20
2023-12-15T13:11:00.614Z,12.80
2023-12-15T13:13:29.125Z,10.40
2023-12-15T13:15:57.550Z,18.50
2023-12-15T13:18:26.097Z,8.50
2023-12-15T13:20:54.631Z,7.40
2023-12-15T13:23:23.514Z,12.40
2023-12-15T13:25:52.371Z,12.60
2023-12-15T13:28:21.390Z,10.90
2023-12-15T13:30:50.574Z,14.60
2023-12-15T13:33:19.238Z,16.00
2023-12-15T13:35:48.521Z,11.60
2023-12-15T13:38:18.418Z,10.50
2023-12-15T13:40:47.024Z,11.70
2023-12-15T13:43:15.394Z,6.60
2023-12-15T13:45:50.604Z,12.50
2023-12-15T13:48:22.675Z,6.90
2023-12-15T13:50:51.287Z,22.60
2023-12-15T13:53:20.063Z,11.20
2023-12-15T13:55:48.620Z,24.10
2023-12-15T13:58:20.451Z,13.50
2023-12-15T14:00:49.372Z,10.60
2023-12-15T14:03:17.893Z,18.20
2023-12-15T14:05:46.307Z,10.90
2023-12-15T14:08:20.126Z,10.10
2023-12-15T14:10:49.083Z,10.60
2023-12-15T14:13:17.590Z,11.50
2023-12-15T14:15:47.364Z,8.90
2023-12-15T14:18:15.953Z,9.80
2023-12-15T14:20:44.484Z,11.50
2023-12-15T14:23:13.549Z,12.80
2023-12-15T14:25:43.606Z,10.20
2023-12-15T14:28:12.278Z,7.40
2023-12-15T14:30:41.654Z,8.30
2023-12-15T14:33:10.304Z,10.00
2023-12-15T14:35:38.968Z,15.50
2023-12-15T14:38:09.261Z,9.40
2023-12-15T14:40:37.699Z,4.50
2023-12-15T14:43:06.500Z,12.40
2023-12-15T14:45:34.868Z,10.10
2023-12-15T14:48:19.598Z,8.70
2023-12-15T14:50:50.442Z,8.00
2023-12-15T14:53:18.961Z,8.30
2023-12-15T14:55:47.606Z,11.80
2023-12-15T14:58:16.610Z,10.00
2023-12-15T15:00:45.174Z,11.90
2023-12-15T15:03:14.499Z,7.80
2023-12-15T15:05:44.711Z,11.90
2023-12-15T15:08:14.352Z,12.40
2023-12-15T15:10:42.874Z,8.70
2023-12-15T15:13:11.170Z,11.30
2023-12-15T15:15:39.500Z,9.20
2023-12-15T15:18:07.925Z,17.50
2023-12-15T15:20:36.351Z,7.40
2023-12-15T15:23:04.853Z,9.30
2023-12-15T15:25:33.168Z,18.90
2023-12-15T15:28:01.480Z,7.70
2023-12-15T15:30:30.159Z,11.40
2023-12-15T15:32:58.650Z,11.40
2023-12-15T15:35:28.846Z,8.20
2023-12-15T15:37:58.255Z,8.50
2023-12-15T15:40:26.547Z,8.90
2023-12-15T15:42:54.955Z,16.80
2023-12-15T15:45:23.800Z,12.50
2023-12-15T15:47:54.734Z,7.50
2023-12-15T15:50:23.085Z,13.00
2023-12-15T15:52:52.314Z,19.60
2023-12-15T15:55:20.891Z,12.20
2023-12-15T15:57:49.736Z,13.30
2023-12-15T16:00:20.862Z,14.10
2023-12-15T16:02:51.446Z,8.10
2023-12-15T16:05:21.114Z,6.80
2023-12-15T16:07:50.086Z,7.80
2023-12-15T16:10:18.524Z,5.00
2023-12-15T16:12:47.128Z,11.40
2023-12-15T16:15:17.199Z,9.90
2023-12-15T16:17:46.197Z,7.20
2023-12-15T16:20:14.763Z,8.50
2023-12-15T16:22:43.145Z,15.60
2023-12-15T16:25:11.568Z,11.40
2023-12-15T16:27:41.566Z,9.10
2023-12-15T16:30:14.205Z,16.90
2023-12-15T16:32:43.631Z,15.50
2023-12-15T16:35:12.176Z,5.50
2023-12-15T16:37:41.682Z,8.70
2023-12-15T16:40:12.131Z,13.60
2023-12-15T16:42:45.025Z,8.80
2023-12-15T16:45:14.444Z,9.80
2023-12-15T16:47:44.073Z,8.00
2023-12-15T16:50:12.956Z,6.00
2023-12-15T16:52:41.438Z,14.70
2023-12-15T16:55:10.469Z,10.80
2023-12-15T16:57:40.521Z,10.60
2023-12-15T17:00:12.296Z,7.40
2023-12-15T17:02:42.187Z,8.60
2023-12-15T17:05:10.936Z,7.10
2023-12-15T17:07:39.480Z,12.30
2023-12-15T17:10:09.219Z,12.60
2023-12-15T17:12:37.772Z,8.80
2023-12-15T17:15:08.941Z,8.90
2023-12-15T17:17:39.464Z,9.00
2023-12-15T17:20:11.466Z,6.90
2023-12-15T17:22:40.552Z,14.10
2023-12-15T17:25:11.697Z,13.60
2023-12-15T17:27:41.160Z,7.10
2023-12-15T17:30:12.032Z,16.50
2023-12-15T17:32:42.734Z,4.90
2023-12-15T17:35:11.714Z,7.60
2023-12-15T17:37:40.085Z,10.60
2023-12-15T17:40:10.679Z,13.50
2023-12-15T17:42:39.210Z,8.20
2023-12-15T17:45:09.820Z,5.30
2023-12-15T17:47:38.491Z,7.80
2023-12-15T17:50:09.008Z,6.70
2023-12-15T17:52:37.494Z,9.10
2023-12-15T17:55:07.177Z,11.80
2023-12-15T17:57:36.157Z,9.40
2023-12-15T18:00:07.488Z,12.40
2023-12-15T18:02:35.852Z,8.10
2023-12-15T18:05:05.108Z,15.00
2023-12-15T18:07:33.433Z,6.30
2023-12-15T18:10:02.017Z,10.00
2023-12-15T18:12:30.414Z,7.60
2023-12-15T18:14:58.917Z,6.80
2023-12-15T18:17:27.428Z,9.30
2023-12-15T18:19:55.984Z,9.90
2023-12-15T18:22:24.509Z,8.50
2023-12-15T18:24:52.970Z,7.30
2023-12-15T18:27:23.143Z,13.50
2023-12-15T18:29:52.261Z,7.00
2023-12-15T18:32:20.633Z,13.80
2023-12-15T18:34:49.086Z,8.10
2023-12-15T18:37:18.322Z,10.00
2023-12-15T18:39:47.598Z,13.00
2023-12-15T18:42:17.106Z,5.30
2023-12-15T18:44:45.850Z,7.80
2023-12-15T18:47:15.353Z,11.70
2023-12-15T18:49:43.969Z,12.80
2023-12-15T18:52:13.757Z,12.90
2023-12-15T18:54:43.691Z,17.70
2023-12-15T18:57:12.997Z,8.80
2023-12-15T18:59:41.829Z,12.00
2023-12-15T19:02:11.573Z,9.20
2023-12-15T19:04:41.437Z,12.90
2023-12-15T19:07:10.158Z,7.50
2023-12-15T19:09:39.190Z,12.00
2023-12-15T19:12:08.590Z,17.30
2023-12-15T19:14:38.833Z,9.10
2023-12-15T19:17:07.413Z,14.50
2023-12-15T19:19:35.899Z,14.80
2023-12-15T19:22:06.771Z,13.20
2023-12-15T19:24:35.223Z,15.20
2023-12-15T19:27:04.462Z,18.90
2023-12-15T19:29:32.849Z,7.40
2023-12-15T19:32:01.821Z,16.80
2023-12-15T19:34:30.385Z,11.90
2023-12-15T19:37:00.805Z,7.70
2023-12-15T19:39:29.113Z,16.40
2023-12-15T19:41:57.612Z,8.20
2023-12-15T19:44:28.413Z,12.30
2023-12-15T19:46:56.765Z,14.10
2023-12-15T19:49:28.732Z,8.50
2023-12-15T19:51:58.139Z,15.30
2023-12-15T19:54:26.434Z,14.80
2023-12-15T19:56:54.903Z,10.50
2023-12-15T19:59:25.212Z,9.60
2023-12-15T20:01:56.563Z,15.20
2023-12-15T20:04:25.114Z,10.90
2023-12-15T20:06:53.681Z,20.40
2023-12-15T20:09:22.131Z,16.90
2023-12-15T20:11:50.593Z,18.60
2023-12-15T20:14:18.940Z,9.00
2023-12-15T20:16:47.234Z,17.70
2023-12-15T20:19:15.825Z,15.10
2023-12-15T20:21:44.310Z,16.50
2023-12-15T20:24:13.843Z,11.20
2023-12-15T20:26:43.433Z,9.70
2023-12-15T20:29:12.097Z,19.60
2023-12-15T20:31:44.298Z,11.30
2023-12-15T20:34:13.220Z,8.70
2023-12-15T20:36:41.794Z,11.70
2023-12-15T20:39:15.535Z,14.70
2023-12-15T20:41:43.913Z,12.70
2023-12-15T20:44:14.834Z,27.60
2023-12-15T20:46:45.995Z,11.40
2023-12-15T20:49:14.633Z,20.80
2023-12-15T20:51:43.418Z,15.10
2023-12-15T20:54:13.303Z,15.40
2023-12-15T20:56:42.778Z,22.10
2023-12-15T20:59:11.645Z,18.30
2023-12-15T21:01:40.195Z,12.70
2023-12-15T21:04:08.758Z,14.20
2023-12-15T21:06:37.294Z,18.10
2023-12-15T21:09:06.087Z,28.30
2023-12-15T21:11:35.901Z,13.30
2023-12-15T21:14:04.660Z,14.70
2023-12-15T21:16:34.872Z,16.80
2023-12-15T21:19:03.356Z,17.40
2023-12-15T21:21:34.661Z,17.40
2023-12-15T21:24:03.874Z,12.00
2023-12-15T21:26:32.946Z,20.10
2023-12-15T21:29:01.281Z,13.70
2023-12-15T21:31:31.712Z,22.50
2023-12-15T21:34:00.536Z,17.70
2023-12-15T21:36:29.075Z,19.20
2023-12-15T21:38:57.486Z,17.20
2023-12-15T21:41:27.114Z,22.30
2023-12-15T21:43:55.911Z,15.30
2023-12-15T21:46:24.292Z,26.20
2023-12-15T21:48:55.656Z,15.90
2023-12-15T21:51:27.177Z,16.10
2023-12-15T21:53:55.590Z,21.60
2023-12-15T21:56:23.888Z,19.80
2023-12-15T21:58:54.399Z,13.10
2023-12-15T22:01:23.156Z,17.60
2023-12-15T22:03:52.886Z,25.80
2023-12-15T22:06:21.879Z,14.30
2023-12-15T22:08:50.540Z,28.40
2023-12-15T22:11:19.069Z,18.90
2023-12-15T22:13:47.392Z,14.80
2023-12-15T22:16:15.858Z,16.40
2023-12-15T22:18:44.427Z,11.40
2023-12-15T22:21:13.464Z,17.40
2023-12-15T22:23:41.920Z,12.00
2023-12-15T22:26:13.557Z,20.70
2023-12-15T22:28:42.744Z,14.30
2023-12-15T22:31:11.284Z,16.50
2023-12-15T22:33:40.548Z,18.30
2023-12-15T22:36:09.650Z,17.20
2023-12-15T22:38:39.424Z,28.40
2023-12-15T22:41:12.959Z,15.60
2023-12-15T22:43:42.345Z,17.90
2023-12-15T22:46:10.866Z,29.00
2023-12-15T22:48:42.386Z,18.80
2023-12-15T22:51:11.033Z,20.20
2023-12-15T22:53:39.591Z,11.40
2023-12-15T22:56:10.310Z,27.80
2023-12-15T22:58:38.941Z,30.20
2023-12-15T23:01:07.856Z,20.60
2023-12-15T23:03:37.892Z,29.30
2023-12-15T23:06:07.253Z,18.00
2023-12-15T23:08:35.844Z,14.80
2023-12-15T23:11:04.842Z,26.00
2023-12-15T23:13:34.301Z,21.30
2023-12-15T23:16:03.144Z,15.70
2023-12-15T23:18:31.898Z,18.00
2023-12-15T23:21:07.079Z,14.10
2023-12-15T23:23:40.877Z,15.60
2023-12-15T23:26:09.974Z,14.90
2023-12-15T23:28:38.636Z,14.70
2023-12-15T23:31:07.809Z,25.40
2023-12-15T23:33:36.481Z,17.10
2023-12-15T23:36:11.741Z,16.60
2023-12-15T23:38:41.333Z,10.40
2023-12-15T23:41:09.888Z,19.20
2023-12-15T23:43:38.288Z,15.60
2023-12-15T23:46:06.673Z,18.20
2023-12-15T23:48:35.283Z,25.90
2023-12-15T23:51:04.744Z,26.30
2023-12-15T23:53:33.202Z,16.50
2023-12-15T23:56:01.798Z,14.30
2023-12-15T23:58:31.668Z,16.30
